Time;durP1;ratioP1;P1;durP2;ratioP2;P2;SDS_P1;SDS_P2;PMS_P1;PMS_P2;Temp;Humidity;BMP_temperature;BMP_pressure;BME280_temperature;BME280_humidity;BME280_pressure;Samples;Min_cycle;Max_cycle;Signal;HPM_P1;HPM_P2
2023/08/11 00:00:08;;;;;;;6.70;3.30;;;;;;;20.66;53.61;100700.89;107670;1260;74801;-68
2023/08/11 00:02:38;;;;;;;5.80;3.50;;;;;;;20.66;53.53;100702.56;107903;1256;72701;-69
2023/08/11 00:05:08;;;;;;;7.00;3.30;;;;;;;20.67;53.42;100701.98;107970;1257;74905;-68
2023/08/11 00:07:36;;;;;;;5.70;3.70;;;;;;;20.69;53.49;100702.81;107790;1258;60418;-73
2023/08/11 00:10:05;;;;;;;7.00;3.60;;;;;;;20.70;53.38;100697.62;107871;1258;60400;-69
2023/08/11 00:12:33;;;;;;;4.90;3.30;;;;;;;20.70;53.31;100696.14;107716;1257;73976;-67
2023/08/11 00:15:01;;;;;;;6.70;3.60;;;;;;;20.70;53.25;100702.18;108006;1257;72869;-67
2023/08/11 00:17:29;;;;;;;5.70;3.40;;;;;;;20.69;53.00;100698.30;107704;1260;71832;-67
2023/08/11 00:19:57;;;;;;;5.00;2.90;;;;;;;20.67;53.17;100695.12;107816;1257;61790;-67
2023/08/11 00:22:24;;;;;;;6.10;3.30;;;;;;;20.65;53.10;100694.52;107860;1256;60134;-67
2023/08/11 00:24:52;;;;;;;6.40;3.40;;;;;;;20.64;53.14;100696.95;107868;1257;72203;-68
2023/08/11 00:27:19;;;;;;;7.10;3.60;;;;;;;20.62;53.21;100697.09;107652;1260;72974;-70
2023/08/11 00:29:47;;;;;;;6.70;3.30;;;;;;;20.61;53.38;100694.64;107583;1258;72674;-70
2023/08/11 00:32:15;;;;;;;6.10;3.20;;;;;;;20.61;53.30;100694.65;107736;1255;60438;-67
2023/08/11 00:34:42;;;;;;;5.60;3.50;;;;;;;20.60;53.23;100691.75;107590;1258;60392;-67
2023/08/11 00:37:10;;;;;;;6.80;3.70;;;;;;;20.59;53.32;100692.69;107735;1257;73962;-67
2023/08/11 00:39:38;;;;;;;6.00;3.90;;;;;;;20.58;53.41;100692.42;107719;1257;72118;-66
2023/08/11 00:42:06;;;;;;;5.40;3.70;;;;;;;20.56;53.44;100689.53;107665;1257;72625;-69
2023/08/11 00:44:34;;;;;;;6.10;3.50;;;;;;;20.53;53.46;100680.67;107451;1262;61290;-69
2023/08/11 00:47:02;;;;;;;7.50;3.50;;;;;;;20.51;53.54;100675.91;107619;1256;60404;-67
2023/08/11 00:49:29;;;;;;;4.70;3.20;;;;;;;20.48;53.62;100676.84;107644;1260;73982;-68
2023/08/11 00:51:57;;;;;;;4.40;3.30;;;;;;;20.47;53.76;100673.21;107835;1257;75099;-67
2023/08/11 00:54:26;;;;;;;6.20;3.40;;;;;;;20.44;53.81;100674.48;107858;1258;72734;-68
2023/08/11 00:56:54;;;;;;;8.30;3.30;;;;;;;20.41;53.97;100676.53;107673;1262;60355;-68
2023/08/11 00:59:22;;;;;;;5.90;3.40;;;;;;;20.38;53.95;100677.87;107763;1256;59055;-68
2023/08/11 01:01:50;;;;;;;6.80;3.50;;;;;;;20.35;54.00;100676.05;107667;1261;73966;-68
2023/08/11 01:04:17;;;;;;;6.70;3.30;;;;;;;20.33;53.99;100676.55;107746;1258;71481;-68
2023/08/11 01:06:47;;;;;;;6.50;3.70;;;;;;;20.30;54.05;100670.95;107783;1258;72788;-67
2023/08/11 01:09:38;;;;;;;6.30;3.80;;;;;;;20.28;54.20;100669.77;107775;1257;61846;-68
2023/08/11 01:12:25;;;;;;;4.90;3.10;;;;;;;20.25;54.32;100665.68;107668;1261;59593;-68
2023/08/11 01:15:29;;;;;;;5.80;3.00;;;;;;;20.23;54.49;100659.46;107894;1258;72614;-67
2023/08/11 01:17:57;;;;;;;6.50;3.00;;;;;;;20.22;54.41;100661.57;107853;1258;72933;-68
2023/08/11 01:20:26;;;;;;;5.40;3.00;;;;;;;20.20;54.37;100662.11;107486;1256;73920;-68
2023/08/11 01:22:55;;;;;;;6.40;3.40;;;;;;;20.17;54.41;100661.65;107560;1263;61699;-69
2023/08/11 01:25:23;;;;;;;5.70;3.30;;;;;;;20.13;54.30;100657.61;107625;1258;60154;-67
2023/08/11 01:27:55;;;;;;;4.50;3.00;;;;;;;20.09;54.62;100655.66;107736;1257;72590;-66
2023/08/11 01:30:27;;;;;;;5.80;3.40;;;;;;;20.06;54.82;100653.59;107811;1257;71996;-69
2023/08/11 01:32:54;;;;;;;6.20;3.70;;;;;;;20.03;55.03;100651.57;108025;1258;72968;-67
2023/08/11 01:35:22;;;;;;;5.80;3.50;;;;;;;20.00;55.07;100646.73;107658;1257;60870;-68
2023/08/11 01:38:08;;;;;;;7.40;3.50;;;;;;;19.98;55.23;100644.71;107952;1257;61030;-67
2023/08/11 01:40:37;;;;;;;5.20;3.30;;;;;;;19.70;55.77;100643.64;107788;1258;73010;-67
2023/08/11 01:43:05;;;;;;;5.60;3.40;;;;;;;19.42;56.74;100644.29;107799;1260;72836;-68
2023/08/11 01:45:33;;;;;;;5.50;3.30;;;;;;;19.35;57.19;100641.66;107832;1260;71749;-69
2023/08/11 01:48:02;;;;;;;5.20;3.40;;;;;;;19.33;57.36;100640.50;107734;1259;60299;-67
2023/08/11 01:50:30;;;;;;;6.30;3.40;;;;;;;19.70;56.62;100630.92;107674;1256;61525;-68
2023/08/11 01:52:58;;;;;;;8.00;3.60;;;;;;;19.79;56.25;100628.59;107644;1257;72715;-67
2023/08/11 01:55:26;;;;;;;6.10;3.30;;;;;;;19.79;55.94;100623.48;107894;1257;72227;-67
2023/08/11 01:57:54;;;;;;;8.20;3.40;;;;;;;19.77;56.06;100625.95;107713;1257;72679;-66
2023/08/11 02:00:27;;;;;;;5.10;3.20;;;;;;;19.74;55.93;100624.90;107792;1256;60402;-66
2023/08/11 02:02:56;;;;;;;5.30;3.60;;;;;;;19.69;56.04;100618.27;107845;1255;60124;-67
2023/08/11 02:05:26;;;;;;;5.60;3.50;;;;;;;19.66;56.17;100618.84;107970;1256;73816;-66
2023/08/11 02:07:55;;;;;;;8.70;3.80;;;;;;;19.64;56.21;100619.89;107798;1258;73103;-67
2023/08/11 02:10:23;;;;;;;7.10;3.70;;;;;;;19.61;56.45;100624.29;108704;1255;72609;-68
2023/08/11 02:12:51;;;;;;;6.20;3.40;;;;;;;19.58;56.49;100622.60;108568;1258;61730;-68
2023/08/11 02:15:19;;;;;;;7.20;3.60;;;;;;;19.54;56.75;100620.73;107715;1257;60345;-67
2023/08/11 02:17:48;;;;;;;6.80;3.60;;;;;;;19.51;56.76;100620.19;107926;1256;72633;-67
2023/08/11 02:20:21;;;;;;;5.00;3.40;;;;;;;19.48;56.93;100616.10;107843;1257;72865;-66
2023/08/11 02:22:51;;;;;;;6.80;3.80;;;;;;;19.45;57.01;100615.80;107779;1257;72750;-67
2023/08/11 02:25:21;;;;;;;5.90;3.60;;;;;;;19.41;57.20;100609.30;107763;1257;60049;-67
2023/08/11 02:27:50;;;;;;;5.30;3.60;;;;;;;19.37;57.23;100611.20;107822;1256;62194;-67
2023/08/11 02:30:18;;;;;;;5.70;3.30;;;;;;;19.34;57.40;100607.39;107746;1257;73910;-67
2023/08/11 02:32:46;;;;;;;5.40;3.50;;;;;;;19.33;57.46;100607.17;107798;1257;71694;-68
2023/08/11 02:35:17;;;;;;;6.30;3.60;;;;;;;19.30;57.71;100610.70;107781;1260;73157;-68
2023/08/11 02:37:45;;;;;;;6.40;3.60;;;;;;;19.29;57.99;100606.36;107587;1261;60541;-68
2023/08/11 02:40:14;;;;;;;4.90;3.60;;;;;;;19.27;58.19;100610.02;107947;1261;60532;-67
2023/08/11 02:42:50;;;;;;;6.40;3.80;;;;;;;19.26;58.41;100608.96;107820;1257;74445;-68
2023/08/11 02:45:17;;;;;;;5.70;3.50;;;;;;;19.17;58.35;100613.55;107746;1260;72723;-66
2023/08/11 02:47:45;;;;;;;7.10;4.00;;;;;;;19.07;58.69;100616.38;107542;1257;72910;-67
2023/08/11 02:50:13;;;;;;;6.50;3.70;;;;;;;19.05;58.71;100615.73;107846;1257;60132;-66
2023/08/11 02:52:41;;;;;;;5.90;4.00;;;;;;;18.88;59.19;100611.84;107803;1255;60404;-66
2023/08/11 02:55:11;;;;;;;5.40;3.60;;;;;;;18.95;59.17;100608.48;107868;1257;72675;-68
2023/08/11 02:57:38;;;;;;;6.20;3.80;;;;;;;18.93;59.14;100607.28;107748;1256;72694;-67
2023/08/11 03:00:09;;;;;;;9.80;4.00;;;;;;;18.89;59.13;100608.90;107913;1256;72706;-69
2023/08/11 03:02:37;;;;;;;7.70;4.00;;;;;;;18.87;59.25;100608.20;107765;1257;60514;-67
2023/08/11 03:05:07;;;;;;;8.10;3.80;;;;;;;18.84;59.10;100609.84;107847;1258;60281;-66
2023/08/11 03:07:36;;;;;;;6.70;3.60;;;;;;;18.86;59.10;100606.92;107878;1257;73113;-66
2023/08/11 03:10:05;;;;;;;7.70;3.90;;;;;;;18.90;59.01;100605.04;107912;1256;74125;-66
2023/08/11 03:12:33;;;;;;;5.90;4.00;;;;;;;18.85;59.08;100600.88;107615;1260;73177;-66
2023/08/11 03:15:05;;;;;;;7.80;3.90;;;;;;;18.93;58.94;100597.79;107693;1256;62054;-66
2023/08/11 03:17:35;;;;;;;;;;;;;;;18.94;58.83;100602.44;107659;1255;60425;-67
2023/08/11 03:20:10;;;;;;;8.00;3.80;;;;;;;18.78;58.95;100604.76;107793;1257;73880;-68
2023/08/11 03:22:40;;;;;;;6.20;3.60;;;;;;;18.84;58.77;100609.18;107914;1257;74973;-67
2023/08/11 03:25:08;;;;;;;7.60;3.90;;;;;;;18.84;58.83;100610.61;107718;1260;71472;-66
2023/08/11 03:27:39;;;;;;;7.10;3.90;;;;;;;18.83;58.76;100603.61;107767;1257;59779;-67
2023/08/11 03:30:10;;;;;;;5.90;3.90;;;;;;;18.81;58.98;100601.27;107783;1256;59199;-66
2023/08/11 03:32:39;;;;;;;7.20;4.20;;;;;;;18.85;58.98;100602.23;107210;1262;683973;-66
2023/08/11 03:35:07;;;;;;;7.10;4.10;;;;;;;18.85;59.28;100604.23;107525;1263;72732;-68
2023/08/11 03:37:35;;;;;;;6.50;4.00;;;;;;;18.90;59.25;100597.13;107768;1257;71920;-67
2023/08/11 03:40:06;;;;;;;8.30;4.10;;;;;;;18.91;59.49;100594.59;107654;1255;60465;-67
2023/08/11 03:42:34;;;;;;;8.40;4.20;;;;;;;18.92;59.58;100597.43;107995;1255;61268;-66
2023/08/11 03:45:02;;;;;;;7.30;3.80;;;;;;;18.99;59.76;100600.77;107684;1257;73862;-66
2023/08/11 03:47:30;;;;;;;5.10;3.40;;;;;;;19.04;59.86;100605.69;107758;1257;71303;-68
2023/08/11 03:49:59;;;;;;;6.70;3.80;;;;;;;19.13;59.76;100603.29;107888;1256;72697;-68
2023/08/11 03:52:26;;;;;;;5.70;4.20;;;;;;;19.20;59.78;100608.28;107971;1257;60393;-67
2023/08/11 03:54:54;;;;;;;5.70;3.90;;;;;;;19.27;59.80;100613.56;107758;1257;60407;-66
2023/08/11 03:57:22;;;;;;;7.80;3.90;;;;;;;19.34;59.86;100611.35;107812;1256;73858;-67
2023/08/11 03:59:50;;;;;;;6.40;4.00;;;;;;;19.48;59.64;100605.42;107617;1258;73077;-67
2023/08/11 04:02:17;;;;;;;7.30;4.00;;;;;;;19.47;59.73;100600.66;107750;1257;73243;-67
2023/08/11 04:04:45;;;;;;;8.60;4.20;;;;;;;19.59;59.38;100601.73;107896;1255;61764;-67
2023/08/11 04:07:13;;;;;;;6.60;3.90;;;;;;;19.64;59.15;100603.52;107851;1257;60424;-67
2023/08/11 04:09:44;;;;;;;7.30;4.20;;;;;;;19.69;59.09;100599.91;107741;1257;72623;-67
2023/08/11 04:12:11;;;;;;;6.40;4.10;;;;;;;19.71;58.86;100600.10;107908;1256;73311;-67
2023/08/11 04:14:39;;;;;;;7.90;4.20;;;;;;;19.75;58.67;100599.73;107588;1257;71780;-68
2023/08/11 04:17:07;;;;;;;8.10;3.90;;;;;;;19.81;58.63;100600.85;107822;1256;60294;-66
2023/08/11 04:19:35;;;;;;;9.50;4.30;;;;;;;19.88;58.20;100605.06;107834;1255;60451;-66
2023/08/11 04:22:05;;;;;;;8.80;4.10;;;;;;;19.97;58.21;100603.67;107858;1257;74907;-68
2023/08/11 04:24:36;;;;;;;7.50;3.70;;;;;;;20.04;58.07;100607.23;107901;1260;73781;-65
2023/08/11 04:27:05;;;;;;;9.00;4.20;;;;;;;20.09;58.00;100606.63;107780;1257;72157;-67
2023/08/11 04:29:33;;;;;;;6.70;3.90;;;;;;;20.13;57.99;100607.27;107726;1257;62728;-70
2023/08/11 04:32:04;;;;;;;7.50;4.20;;;;;;;20.17;57.78;100614.27;107851;1257;60313;-67
2023/08/11 04:34:34;;;;;;;6.10;3.90;;;;;;;20.23;57.85;100625.95;107638;1255;75033;-67
2023/08/11 04:37:04;;;;;;;6.90;3.60;;;;;;;20.33;57.74;100635.02;107727;1256;72034;-66
2023/08/11 04:39:36;;;;;;;7.30;3.90;;;;;;;20.30;58.07;100647.70;107702;1256;71476;-67
2023/08/11 04:42:07;;;;;;;6.40;4.00;;;;;;;20.35;57.92;100653.92;107619;1256;60911;-67
2023/08/11 04:44:43;;;;;;;5.90;3.60;;;;;;;20.43;58.09;100651.63;107754;1255;61349;-67
2023/08/11 04:47:12;;;;;;;8.30;4.00;;;;;;;20.54;57.93;100650.45;107876;1256;72676;-67
2023/08/11 04:49:42;;;;;;;5.80;3.70;;;;;;;20.67;57.09;100648.52;107833;1256;73189;-67
2023/08/11 04:52:09;;;;;;;6.20;3.50;;;;;;;20.87;56.15;100649.93;107932;1256;72773;-67
2023/08/11 04:54:37;;;;;;;6.90;4.20;;;;;;;20.98;55.70;100649.45;107885;1257;60355;-67
2023/08/11 04:57:05;;;;;;;8.40;3.90;;;;;;;21.06;55.25;100649.70;107718;1256;59148;-67
2023/08/11 04:59:32;;;;;;;7.30;3.70;;;;;;;21.13;55.18;100641.20;107681;1256;72821;-67
2023/08/11 05:02:00;;;;;;;5.50;3.60;;;;;;;21.23;54.94;100635.86;107724;1257;74553;-67
2023/08/11 05:04:28;;;;;;;6.40;3.60;;;;;;;21.30;54.68;100630.58;107729;1257;73324;-66
2023/08/11 05:06:56;;;;;;;7.30;3.50;;;;;;;21.35;54.43;100629.84;107748;1256;60306;-66
2023/08/11 05:09:24;;;;;;;6.80;3.90;;;;;;;21.35;54.41;100633.33;107622;1256;60281;-67
2023/08/11 05:11:51;;;;;;;7.80;4.20;;;;;;;21.30;54.19;100635.09;107676;1256;72721;-66
2023/08/11 05:14:19;;;;;;;5.90;3.30;;;;;;;21.23;54.43;100634.71;107740;1256;75824;-65
2023/08/11 05:16:47;;;;;;;7.10;3.50;;;;;;;21.16;54.65;100630.87;107740;1254;71840;-65
2023/08/11 05:19:14;;;;;;;6.40;3.80;;;;;;;21.23;54.60;100636.17;107795;1256;60983;-67
2023/08/11 05:21:42;;;;;;;6.20;3.30;;;;;;;21.41;54.65;100632.83;107927;1256;60618;-67
2023/08/11 05:24:10;;;;;;;5.30;3.50;;;;;;;21.63;54.35;100641.27;107756;1256;72571;-67
2023/08/11 05:26:38;;;;;;;5.30;3.70;;;;;;;21.75;53.85;100647.98;107813;1256;72984;-66
2023/08/11 05:29:06;;;;;;;5.10;3.60;;;;;;;21.87;53.37;100643.67;107851;1257;72757;-66
2023/08/11 05:31:37;;;;;;;6.10;3.60;;;;;;;21.93;53.19;100638.47;107901;1256;60295;-69
2023/08/11 05:34:05;;;;;;;5.70;3.40;;;;;;;21.99;53.23;100642.10;107777;1255;60355;-67
2023/08/11 05:36:32;;;;;;;6.00;3.50;;;;;;;22.06;53.17;100638.41;107764;1258;72948;-68
2023/08/11 05:39:00;;;;;;;8.40;3.60;;;;;;;22.09;53.28;100634.46;107831;1256;71797;-68
2023/08/11 05:41:28;;;;;;;8.40;3.60;;;;;;;22.16;53.22;100634.59;107772;1256;70715;-68
2023/08/11 05:43:56;;;;;;;5.90;3.90;;;;;;;22.22;52.83;100633.17;107760;1256;62184;-68
2023/08/11 05:46:24;;;;;;;6.20;3.50;;;;;;;22.33;52.72;100635.44;107723;1255;61775;-69
2023/08/11 05:48:52;;;;;;;7.10;3.60;;;;;;;22.37;52.73;100638.94;107796;1254;73932;-67
2023/08/11 05:51:20;;;;;;;6.80;4.10;;;;;;;22.41;52.76;100632.63;107585;1259;71607;-68
2023/08/11 05:53:48;;;;;;;8.20;4.40;;;;;;;22.45;52.44;100629.83;107760;1256;71438;-66
2023/08/11 05:56:17;;;;;;;6.20;3.90;;;;;;;22.46;52.41;100624.31;107692;1255;63017;-69
2023/08/11 05:58:45;;;;;;;6.60;3.90;;;;;;;22.49;52.69;100618.91;107785;1256;60418;-66
2023/08/11 06:01:13;;;;;;;7.00;4.40;;;;;;;22.57;52.62;100616.85;107581;1256;72625;-67
2023/08/11 06:03:41;;;;;;;6.00;3.70;;;;;;;22.63;52.48;100618.06;107544;1256;72687;-67
2023/08/11 06:06:08;;;;;;;8.50;4.00;;;;;;;22.67;52.53;100618.27;107667;1256;75050;-69
2023/08/11 06:08:36;;;;;;;6.00;4.10;;;;;;;22.52;52.90;100618.92;107594;1258;60340;-67
2023/08/11 06:11:04;;;;;;;6.50;3.80;;;;;;;22.35;53.58;100622.29;107768;1255;60471;-68
2023/08/11 06:13:32;;;;;;;5.70;3.70;;;;;;;22.69;53.06;100625.27;107749;1255;73994;-69
2023/08/11 06:16:00;;;;;;;6.70;3.60;;;;;;;22.89;52.61;100627.52;107665;1257;71695;-68
2023/08/11 06:18:28;;;;;;;6.60;4.30;;;;;;;22.82;52.99;100627.66;107653;1255;71431;-68
2023/08/11 06:20:57;;;;;;;7.80;3.50;;;;;;;23.10;52.27;100625.75;107755;1256;61758;-69
2023/08/11 06:23:24;;;;;;;6.20;3.60;;;;;;;23.22;52.16;100626.64;107796;1256;60306;-68
2023/08/11 06:25:55;;;;;;;5.00;3.50;;;;;;;23.29;51.76;100626.57;107680;1256;74012;-67
2023/08/11 06:28:22;;;;;;;5.70;3.40;;;;;;;23.27;51.84;100623.09;107513;1256;72914;-67
2023/08/11 06:30:50;;;;;;;7.20;3.80;;;;;;;23.46;51.42;100618.29;107762;1257;72034;-69
2023/08/11 06:33:19;;;;;;;8.80;3.70;;;;;;;23.53;50.83;100615.02;107755;1255;60316;-67
2023/08/11 06:35:47;;;;;;;6.80;3.60;;;;;;;23.58;50.62;100612.05;107652;1260;61380;-68
2023/08/11 06:38:15;;;;;;;5.80;4.00;;;;;;;23.61;50.78;100611.36;107581;1254;73797;-69
2023/08/11 06:40:44;;;;;;;6.70;3.60;;;;;;;23.66;50.79;100614.85;107726;1254;72938;-69
2023/08/11 06:43:11;;;;;;;6.20;3.50;;;;;;;23.71;50.82;100612.40;107620;1254;72663;-69
2023/08/11 06:45:39;;;;;;;5.40;3.70;;;;;;;23.76;50.54;100609.05;107781;1256;60651;-68
2023/08/11 06:48:06;;;;;;;9.70;4.20;;;;;;;23.85;50.18;100607.88;107513;1260;60056;-69
2023/08/11 06:50:34;;;;;;;6.70;3.70;;;;;;;23.92;49.76;100606.29;107884;1254;76802;-70
2023/08/11 06:53:02;;;;;;;4.80;3.60;;;;;;;24.00;49.79;100606.90;107562;1254;73015;-69
2023/08/11 06:55:31;;;;;;;6.40;3.40;;;;;;;24.10;49.24;100602.05;107841;1256;72715;-68
2023/08/11 06:57:59;;;;;;;7.10;3.80;;;;;;;24.19;49.18;100599.57;107879;1256;60446;-69
2023/08/11 07:00:27;;;;;;;9.50;4.10;;;;;;;24.34;49.08;100604.02;107535;1254;60991;-66
2023/08/11 07:02:54;;;;;;;7.90;4.30;;;;;;;24.51;48.85;100600.16;107546;1254;73953;-68
2023/08/11 07:05:22;;;;;;;9.20;4.10;;;;;;;24.62;48.53;100604.16;107558;1260;72879;-70
2023/08/11 07:07:50;;;;;;;7.20;3.90;;;;;;;24.65;48.18;100596.45;107524;1256;72844;-68
2023/08/11 07:10:17;;;;;;;5.90;3.70;;;;;;;24.64;47.80;100598.63;107610;1254;60315;-68
2023/08/11 07:12:45;;;;;;;8.00;4.00;;;;;;;24.63;47.84;100594.29;107698;1254;60469;-70
2023/08/11 07:15:13;;;;;;;5.60;3.80;;;;;;;24.62;47.92;100595.45;107635;1254;73843;-67
2023/08/11 07:17:40;;;;;;;7.00;3.70;;;;;;;24.64;48.05;100590.33;108163;1254;72658;-69
2023/08/11 07:20:08;;;;;;;6.40;3.70;;;;;;;24.68;48.01;100591.69;107917;1256;73169;-67
2023/08/11 07:22:36;;;;;;;7.30;4.10;;;;;;;24.78;47.99;100585.53;107479;1256;61687;-69
2023/08/11 07:25:04;;;;;;;6.80;3.90;;;;;;;24.93;47.81;100583.70;107548;1254;60503;-69
2023/08/11 07:27:31;;;;;;;8.40;4.10;;;;;;;25.14;47.34;100583.39;107695;1254;74396;-68
2023/08/11 07:29:59;;;;;;;7.30;3.90;;;;;;;25.30;46.98;100577.83;107761;1254;72518;-68
2023/08/11 07:32:27;;;;;;;9.00;3.80;;;;;;;25.44;46.99;100581.66;107694;1256;72876;-66
2023/08/11 07:34:55;;;;;;;6.00;3.80;;;;;;;25.55;46.61;100583.05;107680;1254;59067;-67
2023/08/11 07:37:28;;;;;;;7.30;4.00;;;;;;;25.60;46.32;100581.84;107706;1254;60351;-68
2023/08/11 07:40:00;;;;;;;7.80;4.00;;;;;;;25.64;46.03;100582.48;107614;1254;75995;-68
2023/08/11 07:42:28;;;;;;;7.60;4.00;;;;;;;25.63;46.26;100585.05;107652;1254;72681;-68
2023/08/11 07:44:57;;;;;;;6.80;4.00;;;;;;;25.68;46.25;100589.19;107691;1254;73570;-68
2023/08/11 07:47:24;;;;;;;6.40;3.70;;;;;;;25.77;45.97;100594.55;107644;1254;62523;-67
2023/08/11 07:49:52;;;;;;;8.20;3.90;;;;;;;25.80;45.58;100598.13;107579;1254;60531;-68
2023/08/11 07:52:24;;;;;;;6.30;3.80;;;;;;;25.79;45.52;100607.41;107878;1254;72584;-66
2023/08/11 07:54:52;;;;;;;10.20;4.00;;;;;;;25.84;45.81;100608.71;107962;1254;72850;-68
2023/08/11 07:57:20;;;;;;;7.90;3.80;;;;;;;25.96;45.74;100608.58;107823;1254;71410;-67
2023/08/11 07:59:48;;;;;;;6.50;3.60;;;;;;;26.07;45.51;100608.46;107763;1256;60519;-68
2023/08/11 08:02:15;;;;;;;5.90;3.40;;;;;;;26.11;45.28;100613.09;107781;1257;60310;-67
2023/08/11 08:04:43;;;;;;;5.60;3.60;;;;;;;26.14;45.26;100610.73;107638;1254;74272;-70
2023/08/11 08:07:11;;;;;;;7.80;3.80;;;;;;;26.16;45.38;100612.48;107640;1254;72736;-68
2023/08/11 08:09:38;;;;;;;8.30;3.60;;;;;;;26.22;44.79;100609.92;107841;1254;71144;-67
2023/08/11 08:12:06;;;;;;;6.20;3.70;;;;;;;26.24;44.78;100609.44;107830;1254;60260;-69
2023/08/11 08:14:34;;;;;;;5.80;3.60;;;;;;;26.27;45.13;100608.09;107686;1254;60280;-68
2023/08/11 08:17:02;;;;;;;7.70;3.50;;;;;;;26.33;44.96;100605.54;107706;1254;72575;-67
2023/08/11 08:19:30;;;;;;;6.10;3.50;;;;;;;26.42;44.62;100599.67;107838;1256;71577;-67
2023/08/11 08:21:58;;;;;;;5.80;3.30;;;;;;;26.53;44.49;100596.77;107561;1256;72859;-68
2023/08/11 08:24:25;;;;;;;5.00;3.60;;;;;;;26.54;44.15;100602.20;107781;1256;60788;-68
2023/08/11 08:26:53;;;;;;;8.30;3.80;;;;;;;26.53;44.24;100605.70;107811;1254;60395;-66
2023/08/11 08:29:21;;;;;;;8.50;3.60;;;;;;;26.50;44.59;100609.47;107664;1254;76113;-68
2023/08/11 08:31:49;;;;;;;7.20;3.70;;;;;;;26.47;44.84;100610.73;107518;1254;72719;-69
2023/08/11 08:34:16;;;;;;;7.10;3.70;;;;;;;26.49;44.94;100607.02;107547;1254;72726;-69
2023/08/11 08:36:44;;;;;;;6.60;3.80;;;;;;;26.52;45.10;100606.31;107604;1254;60308;-69
2023/08/11 08:39:12;;;;;;;5.90;3.60;;;;;;;26.61;44.81;100604.52;107753;1254;60312;-68
2023/08/11 08:41:39;;;;;;;5.10;3.30;;;;;;;26.75;44.98;100604.36;107782;1254;73916;-68
2023/08/11 08:44:07;;;;;;;4.50;3.20;;;;;;;26.90;44.79;100607.10;107607;1261;72748;-68
2023/08/11 08:46:35;;;;;;;6.40;3.40;;;;;;;26.85;45.25;100606.40;107809;1254;72674;-67
2023/08/11 08:49:19;;;;;;;4.50;2.90;;;;;;;26.64;45.61;100604.10;107727;1254;61200;-68
2023/08/11 08:51:47;;;;;;;4.40;2.80;;;;;;;26.60;46.18;100602.53;107718;1254;60401;-68
2023/08/11 08:54:14;;;;;;;6.00;3.60;;;;;;;26.94;45.50;100606.55;107762;1254;73894;-67
2023/08/11 08:56:42;;;;;;;5.00;3.30;;;;;;;27.14;44.51;100606.89;107682;1254;72915;-67
2023/08/11 08:59:10;;;;;;;6.80;3.60;;;;;;;27.16;44.38;100607.16;107956;1254;73211;-66
2023/08/11 09:01:38;;;;;;;6.70;3.70;;;;;;;27.13;44.45;100604.05;107847;1254;60313;-67
2023/08/11 09:04:06;;;;;;;6.10;3.50;;;;;;;27.11;44.43;100602.21;107978;1254;60866;-69
2023/08/11 09:06:35;;;;;;;6.30;3.60;;;;;;;27.13;44.83;100605.70;107774;1254;72555;-67
2023/08/11 09:09:04;;;;;;;5.20;3.40;;;;;;;27.20;44.90;100609.25;109040;1256;73756;-68
2023/08/11 09:11:32;;;;;;;7.60;4.00;;;;;;;27.30;44.91;100604.56;107926;1254;74856;-67
2023/08/11 09:14:07;;;;;;;8.60;3.70;;;;;;;27.38;44.44;100604.20;107835;1254;60590;-66
2023/08/11 09:16:37;;;;;;;5.40;3.20;;;;;;;27.36;44.24;100598.06;107829;1254;60336;-67
2023/08/11 09:19:09;;;;;;;4.90;3.20;;;;;;;27.29;44.30;100592.85;107603;1260;73905;-68
2023/08/11 09:21:36;;;;;;;;;;;;;;;27.24;44.48;100592.47;107641;1254;72892;-68
2023/08/11 09:24:04;;;;;;;8.70;4.20;;;;;;;27.20;44.52;100592.49;107699;1254;72446;-69
2023/08/11 09:26:32;;;;;;;6.20;3.50;;;;;;;27.18;44.96;100588.77;107580;1254;60753;-69
2023/08/11 09:29:00;;;;;;;6.00;3.60;;;;;;;27.15;44.89;100590.95;107737;1259;60394;-67
2023/08/11 09:31:27;;;;;;;5.70;3.70;;;;;;;27.12;44.64;100595.73;107822;1254;73871;-67
2023/08/11 09:33:56;;;;;;;6.80;3.70;;;;;;;27.12;44.59;100599.11;107764;1254;71452;-67
2023/08/11 09:36:23;;;;;;;4.70;3.50;;;;;;;27.15;44.47;100603.08;107801;1258;73048;-68
2023/08/11 09:38:51;;;;;;;5.70;3.40;;;;;;;27.21;44.74;100604.26;107832;1256;59804;-68
2023/08/11 09:41:19;;;;;;;7.10;2.80;;;;;;;27.22;45.26;100599.89;108033;1253;60390;-67
2023/08/11 09:43:49;;;;;;;5.00;2.70;;;;;;;27.23;45.26;100591.91;107703;1254;73882;-69
2023/08/11 09:46:17;;;;;;;4.70;2.50;;;;;;;27.27;45.20;100588.91;107784;1254;71586;-67
2023/08/11 09:48:55;;;;;;;5.20;2.90;;;;;;;27.31;44.94;100584.68;107798;1255;72710;-68
2023/08/11 09:51:23;;;;;;;7.40;3.40;;;;;;;27.37;45.04;100587.11;107835;1255;60491;-68
2023/08/11 09:53:50;;;;;;;5.10;3.30;;;;;;;27.45;44.96;100574.03;107806;1254;60766;-69
2023/08/11 09:56:18;;;;;;;5.50;3.00;;;;;;;27.58;45.16;100568.34;107821;1256;72314;-69
2023/08/11 09:58:46;;;;;;;6.60;2.80;;;;;;;27.77;43.99;100568.20;107809;1260;72828;-68
2023/08/11 10:01:13;;;;;;;4.90;2.70;;;;;;;27.90;43.45;100569.15;107783;1254;72754;-69
2023/08/11 10:03:48;;;;;;;4.80;2.60;;;;;;;27.96;43.11;100565.94;107675;1258;60314;-69
2023/08/11 10:06:21;;;;;;;5.30;2.70;;;;;;;28.04;43.49;100560.84;107768;1254;60296;-67
2023/08/11 10:08:49;;;;;;;5.70;3.00;;;;;;;28.17;43.67;100556.03;107848;1255;65223;-69
2023/08/11 10:11:18;;;;;;;5.90;3.40;;;;;;;28.26;43.46;100558.55;107685;1256;63807;-68
2023/08/11 10:13:46;;;;;;;6.90;4.20;;;;;;;28.29;43.08;100556.86;107804;1254;72663;-67
2023/08/11 10:16:14;;;;;;;6.60;3.50;;;;;;;28.32;43.19;100557.20;107739;1256;60314;-69
2023/08/11 10:18:42;;;;;;;5.00;2.50;;;;;;;28.34;42.33;100554.55;107615;1254;60397;-70
2023/08/11 10:21:10;;;;;;;4.40;2.80;;;;;;;28.27;41.85;100549.79;107657;1254;73804;-69
2023/08/11 10:23:39;;;;;;;3.80;2.40;;;;;;;28.24;42.44;100547.01;107733;1254;62492;-68
2023/08/11 10:26:07;;;;;;;3.00;2.00;;;;;;;28.36;41.90;100542.91;107773;1254;72671;-68
2023/08/11 10:28:34;;;;;;;3.10;1.80;;;;;;;28.46;41.14;100538.92;107793;1256;60328;-68
2023/08/11 10:31:04;;;;;;;2.90;1.90;;;;;;;28.50;40.62;100543.83;107598;1254;60448;-68
2023/08/11 10:33:31;;;;;;;4.20;2.20;;;;;;;28.55;40.03;100541.35;107762;1254;63645;-71
2023/08/11 10:36:00;;;;;;;4.20;2.60;;;;;;;28.63;40.36;100545.65;107848;1254;64038;-68
2023/08/11 10:38:31;;;;;;;4.00;2.70;;;;;;;28.61;41.12;100555.85;107929;1255;71973;-68
2023/08/11 10:41:03;;;;;;;5.50;2.80;;;;;;;28.73;41.31;100556.34;107794;1256;60429;-69
2023/08/11 10:43:32;;;;;;;5.20;2.70;;;;;;;28.77;41.26;100548.38;107738;1254;60299;-68
2023/08/11 10:46:23;;;;;;;4.70;2.50;;;;;;;28.76;40.92;100542.48;107739;1254;63798;-67
2023/08/11 10:48:52;;;;;;;4.40;2.70;;;;;;;28.73;40.65;100544.64;107764;1254;72904;-69
2023/08/11 10:51:24;;;;;;;4.50;2.90;;;;;;;28.77;40.68;100546.26;107747;1256;62438;-71
2023/08/11 10:53:57;;;;;;;5.90;2.50;;;;;;;28.89;40.36;100544.38;107711;1254;60287;-68
2023/08/11 10:56:45;;;;;;;4.80;2.60;;;;;;;29.07;40.24;100545.38;107797;1254;59284;-69
2023/08/11 10:59:15;;;;;;;4.80;2.90;;;;;;;29.24;40.38;100541.09;107580;1254;64125;-68
2023/08/11 11:01:45;;;;;;;5.40;2.90;;;;;;;29.27;40.44;100540.40;107690;1254;62728;-67
2023/08/11 11:04:13;;;;;;;5.80;2.80;;;;;;;29.22;40.20;100537.94;107827;1254;63881;-68
2023/08/11 11:06:43;;;;;;;3.90;2.40;;;;;;;29.10;40.19;100530.32;107833;1256;60557;-68
2023/08/11 11:09:11;;;;;;;3.00;2.30;;;;;;;29.06;40.52;100529.66;107776;1254;60739;-69
2023/08/11 11:11:39;;;;;;;3.10;2.20;;;;;;;29.08;40.95;100531.80;107898;1254;64910;-68
2023/08/11 11:14:08;;;;;;;5.00;2.50;;;;;;;29.05;41.06;100529.50;107885;1254;63997;-67
2023/08/11 11:16:36;;;;;;;3.90;2.40;;;;;;;28.88;40.72;100524.57;107819;1256;73581;-69
2023/08/11 11:19:05;;;;;;;3.90;2.10;;;;;;;28.65;40.41;100534.20;107763;1254;61251;-69
2023/08/11 11:38:00;;;;;;;4.40;2.20;;;;;;;27.87;42.64;100532.27;107463;1259;60422;-69
2023/08/11 11:40:29;;;;;;;3.90;2.30;;;;;;;27.90;42.39;100523.66;107499;1259;60328;-68